KTOL/TOL METAR and TAF weather

Enter ICAO airport designator
Station Type Date Time Source
KTOL METAR 2019/06/16 13:04 UTC NOAA

KTOL 161304Z 07005KT 2 1/2SM -RA OVC003 19/16 A2981 RMK AO2 P0001 T01890161 $


Station Type Date Time Source
KTOL Decoded METAR 2019/06/16 13:04 UTC NOAA

TOLEDO EXPRESS AIRPORT, OH, United States (KTOL) 41-35N 083-48W 210M
Jun 16, 2019 - 09:04 AM EDT / 2019.06.16 1304 UTC
Wind: from the ENE (070 degrees) at 6 MPH (5 KT):0
Visibility: 2 1/2 mile(s):0
Sky conditions: overcast
Weather: light rain
Precipitation last hour: 0.01 inches
Temperature: 66.0 F (18.9 C)
Dew Point: 61.0 F (16.1 C)
Relative Humidity: 83%
Pressure (altimeter): 29.81 in. Hg (1009 hPa)
ob: KTOL 161304Z 07005KT 2 1/2SM -RA OVC003 19/16 A2981 RMK AO2 P0001 T01890161
cycle: 13

Station Type Date Time Source
KTOL TAF 2019/06/16 12:28 UTC NOAA

TAF KTOL 161126Z 1612/1712 VRB03KT 3SM -SHRA BR BKN002 OVC020
TEMPO 1612/1614 1/2SM FG OVC002
FM161600 07005KT P6SM VCSH BKN012 OVC025
FM162200 07007KT P6SM BKN015 OVC035
FM170200 06007KT P6SM SCT015 BKN050

Example: see airport list